Time;durP1;ratioP1;P1;durP2;ratioP2;P2;SDS_P1;SDS_P2;PMS_P1;PMS_P2;Temp;Humidity;BMP_temperature;BMP_pressure;BME280_temperature;BME280_humidity;BME280_pressure;Samples;Min_cycle;Max_cycle;Signal;HPM_P1;HPM_P2
2023/05/28 00:00:47;;;;;;;0.10;0.10;;;15.40;99.90;;;15.82;100.00;100222.28;4868766;29;20253;-75
2023/05/28 00:03:19;;;;;;;0.10;0.10;;;15.50;99.90;;;15.77;100.00;100211.69;4872138;29;20244;-75
2023/05/28 00:05:47;;;;;;;0.20;0.20;;;;;;;15.70;100.00;100209.16;4873356;29;20754;-74
2023/05/28 00:08:14;;;;;;;0.10;0.10;;;15.40;99.90;;;15.70;100.00;100226.03;4873265;29;20244;-74
2023/05/28 00:10:42;;;;;;;0.10;0.10;;;15.30;99.90;;;15.60;100.00;100225.28;4874261;29;20236;-75
2023/05/28 00:13:10;;;;;;;0.57;0.57;;;;;;;15.65;100.00;100239.41;4874398;29;20236;-74
2023/05/28 00:15:37;;;;;;;0.15;0.15;;;15.20;99.90;;;15.57;100.00;100243.94;4874198;29;20241;-75
2023/05/28 00:18:05;;;;;;;0.10;0.10;;;;;;;15.54;100.00;100246.63;4889455;29;20244;-75
2023/05/28 00:20:32;;;;;;;0.10;0.10;;;16.30;99.90;;;15.43;100.00;100251.22;4871154;29;20239;-74
2023/05/28 00:23:00;;;;;;;0.10;0.10;;;15.10;99.90;;;15.45;100.00;100259.19;4873753;29;20283;-74
2023/05/28 00:25:27;;;;;;;0.35;0.22;;;15.10;99.90;;;15.39;100.00;100262.81;4866187;29;20251;-74
2023/05/28 00:27:54;;;;;;;0.10;0.10;;;15.00;99.90;;;15.32;100.00;100274.47;4868943;29;20275;-75
2023/05/28 00:30:23;;;;;;;0.10;0.10;;;15.00;99.90;;;15.30;100.00;100286.94;4875142;29;20327;-75
2023/05/28 00:32:50;;;;;;;0.10;0.10;;;15.00;99.90;;;15.18;100.00;100290.63;4882612;29;20252;-76
2023/05/28 00:35:17;;;;;;;1.08;0.65;;;16.30;99.90;;;15.11;100.00;100302.25;4871462;29;20240;-75
2023/05/28 00:37:44;;;;;;;0.10;0.10;;;14.80;99.90;;;15.00;100.00;100305.03;4875611;29;20244;-75
2023/05/28 00:40:15;;;;;;;0.10;0.10;;;14.70;99.90;;;15.08;100.00;100309.38;4876028;29;20702;-75
2023/05/28 00:42:43;;;;;;;0.10;0.10;;;14.70;99.90;;;15.04;100.00;100301.44;4875735;29;20240;-74
2023/05/28 00:45:11;;;;;;;0.20;0.20;;;15.20;99.90;;;15.00;100.00;100290.84;4873738;29;20616;-74
2023/05/28 00:47:41;;;;;;;0.10;0.10;;;14.70;99.90;;;14.95;100.00;100285.56;4877548;29;20232;-75
2023/05/28 00:50:10;;;;;;;0.15;0.15;;;14.60;99.90;;;14.90;100.00;100281.19;4874329;29;20252;-75
2023/05/28 00:52:37;;;;;;;0.73;0.73;;;14.60;99.90;;;14.80;100.00;100272.41;4881079;29;20248;-74
2023/05/28 00:55:15;;;;;;;0.10;0.10;;;14.50;99.90;;;14.70;100.00;100263.66;4878199;29;20243;-75
2023/05/28 00:57:43;;;;;;;0.20;0.20;;;14.40;99.90;;;14.83;100.00;100306.13;4875591;29;20255;-75
2023/05/28 01:00:11;;;;;;;0.20;0.20;;;14.40;99.90;;;14.66;100.00;100296.53;4874635;29;20236;-75
2023/05/28 01:02:42;;;;;;;0.13;0.13;;;14.30;99.90;;;14.72;100.00;100303.56;4874577;29;20240;-75
2023/05/28 01:05:09;;;;;;;0.20;0.20;;;14.40;99.90;;;14.62;100.00;100286.81;4865981;29;20315;-75
2023/05/28 01:07:37;;;;;;;0.10;0.10;;;14.30;99.90;;;14.60;100.00;100271.75;4882718;29;20236;-74
2023/05/28 01:10:06;;;;;;;0.10;0.10;;;14.30;99.90;;;14.67;100.00;100273.44;4869232;29;20237;-75
2023/05/28 01:12:35;;;;;;;0.45;0.45;;;14.30;99.90;;;14.54;100.00;100263.81;4892643;29;20803;-74
2023/05/28 01:15:03;;;;;;;0.38;0.38;;;;;;;14.49;100.00;100270.97;4868631;29;20244;-74
2023/05/28 01:17:31;;;;;;;0.20;0.20;;;14.20;99.90;;;14.51;100.00;100264.72;4862735;29;20248;-75
2023/05/28 01:20:05;;;;;;;0.10;0.10;;;14.20;99.90;;;14.43;100.00;100265.69;4875731;29;20240;-74
2023/05/28 01:22:40;;;;;;;0.10;0.10;;;14.00;99.90;;;14.25;100.00;100256.94;4867400;29;20705;-74
2023/05/28 01:25:09;;;;;;;0.20;0.20;;;14.00;99.90;;;14.32;100.00;100261.34;4877419;29;20244;-75
2023/05/28 01:27:39;;;;;;;0.10;0.10;;;14.00;99.90;;;14.45;100.00;100285.19;4875773;29;20331;-74
2023/05/28 01:30:11;;;;;;;0.10;0.10;;;14.10;99.90;;;14.34;100.00;100254.22;4871472;29;20240;-74
2023/05/28 01:32:39;;;;;;;0.50;0.50;;;14.00;99.90;;;14.32;100.00;100253.34;4876726;29;20300;-75
2023/05/28 01:35:08;;;;;;;0.20;0.20;;;14.00;99.90;;;14.30;100.00;100270.19;4883149;29;20240;-74
2023/05/28 01:37:40;;;;;;;0.20;0.20;;;14.00;99.90;;;14.26;100.00;100247.16;4867165;29;20249;-76
2023/05/28 01:40:09;;;;;;;0.20;0.20;;;13.90;99.90;;;14.25;100.00;100246.28;4858520;29;20233;-74
2023/05/28 01:42:37;;;;;;;0.10;0.10;;;13.90;99.90;;;14.20;100.00;100228.59;4889769;29;20251;-76
2023/05/28 01:45:06;;;;;;;0.20;0.20;;;13.90;99.90;;;14.14;100.00;100237.53;4877810;29;20248;-75
2023/05/28 01:47:34;;;;;;;0.20;0.20;;;13.80;99.90;;;14.11;100.00;100245.53;4889639;29;20825;-74
2023/05/28 01:50:02;;;;;;;0.10;0.10;;;13.80;99.90;;;14.17;100.00;100266.75;4877206;29;20236;-74
2023/05/28 01:52:29;;;;;;;0.10;0.10;;;13.80;99.90;;;14.13;100.00;100286.28;4877569;29;20236;-75
2023/05/28 01:54:57;;;;;;;0.15;0.15;;;13.80;99.90;;;14.02;100.00;100259.78;4876809;29;20300;-74
2023/05/28 01:57:24;;;;;;;0.10;0.10;;;13.80;99.90;;;14.01;100.00;100249.16;4873811;29;20693;-75
2023/05/28 01:59:51;;;;;;;0.10;0.10;;;13.70;99.90;;;13.97;100.00;100263.38;4873608;29;20243;-74
2023/05/28 02:02:21;;;;;;;0.20;0.20;;;13.60;99.90;;;13.93;100.00;100256.31;4872405;29;20248;-75
2023/05/28 02:04:48;;;;;;;0.20;0.20;;;13.60;99.90;;;13.99;100.00;100265.13;4871310;29;20244;-74
2023/05/28 02:07:15;;;;;;;0.10;0.10;;;13.60;99.90;;;13.83;100.00;100254.63;4876449;29;20245;-74
2023/05/28 02:09:43;;;;;;;0.10;0.10;;;13.50;99.90;;;13.85;100.00;100256.38;4873594;29;20240;-75
2023/05/28 02:12:10;;;;;;;0.15;0.15;;;13.50;99.90;;;13.91;100.00;100279.34;4876896;29;20240;-74
2023/05/28 02:14:37;;;;;;;0.40;0.40;;;13.50;99.90;;;13.85;100.00;100266.13;4875382;29;20255;-74
2023/05/28 02:17:04;;;;;;;0.10;0.10;;;13.50;99.90;;;13.84;100.00;100273.19;4876199;29;20263;-74
2023/05/28 02:19:32;;;;;;;0.20;0.20;;;13.50;99.90;;;13.83;100.00;100275.88;4877559;29;20300;-75
2023/05/28 02:21:59;;;;;;;0.20;0.20;;;13.50;99.90;;;13.85;100.00;100276.75;4870594;29;20255;-74
2023/05/28 02:24:27;;;;;;;0.20;0.20;;;13.50;99.90;;;13.93;100.00;100299.72;4879544;29;20235;-75
2023/05/28 02:26:54;;;;;;;0.10;0.10;;;;;;;13.86;100.00;100298.00;4875958;29;20240;-74
2023/05/28 02:29:22;;;;;;;0.17;0.17;;;;;;;13.72;100.00;100284.81;4877718;29;20296;-74
2023/05/28 02:31:49;;;;;;;0.10;0.10;;;;;;;13.62;100.00;100272.47;4870549;29;20251;-74
2023/05/28 02:34:16;;;;;;;0.10;0.10;;;13.30;99.90;;;13.59;100.00;100276.91;4881818;29;20295;-74
2023/05/28 02:36:43;;;;;;;0.50;0.50;;;13.30;99.90;;;13.59;100.00;100288.41;4885300;29;21723;-75
2023/05/28 02:39:11;;;;;;;0.10;0.10;;;13.20;99.90;;;13.44;100.00;100281.41;4878482;29;20266;-75
2023/05/28 02:41:38;;;;;;;0.20;0.20;;;13.20;99.90;;;13.59;100.00;100315.00;4882255;29;20228;-75
2023/05/28 02:44:05;;;;;;;0.20;0.20;;;13.20;99.90;;;13.45;100.00;100306.22;4875396;29;20236;-75
2023/05/28 02:46:32;;;;;;;0.20;0.20;;;13.20;99.90;;;13.45;100.00;100316.84;4876661;29;20266;-74
2023/05/28 02:48:59;;;;;;;0.10;0.10;;;13.10;99.90;;;13.42;100.00;100322.16;4874073;29;20300;-74
2023/05/28 02:51:26;;;;;;;0.20;0.20;;;13.10;99.90;;;13.39;100.00;100324.84;4877055;29;20261;-74
2023/05/28 02:53:53;;;;;;;0.10;0.10;;;13.10;99.90;;;13.40;100.00;100340.75;4891756;29;20244;-75
2023/05/28 02:56:21;;;;;;;0.20;0.20;;;13.10;99.90;;;13.28;100.00;100327.53;4875571;29;20256;-74
2023/05/28 02:58:48;;;;;;;0.20;0.20;;;12.90;99.90;;;13.23;100.00;100326.66;4870449;29;20276;-74
2023/05/28 03:01:15;;;;;;;0.30;0.30;;;13.00;99.90;;;13.18;100.00;100339.06;4881460;29;20720;-75
2023/05/28 03:03:42;;;;;;;0.10;0.10;;;12.90;99.90;;;13.28;100.00;100367.38;4873942;29;20320;-75
2023/05/28 03:06:10;;;;;;;0.20;0.20;;;13.00;99.90;;;13.25;100.00;100361.19;4887786;29;20244;-74
2023/05/28 03:08:37;;;;;;;0.20;0.20;;;12.90;99.90;;;13.25;100.00;100367.38;4887363;29;20769;-75
2023/05/28 03:11:04;;;;;;;0.13;0.13;;;12.90;99.90;;;13.09;100.00;100361.19;4877407;29;20255;-74
2023/05/28 03:13:31;;;;;;;0.20;0.20;;;12.70;99.90;;;13.03;100.00;100362.97;4876041;29;20251;-74
2023/05/28 03:15:58;;;;;;;0.10;0.10;;;12.70;99.90;;;12.97;100.00;100365.59;4877148;29;20245;-75
2023/05/28 03:18:34;;;;;;;0.20;0.20;;;12.70;99.90;;;12.94;100.00;100382.44;4877411;29;20245;-74
2023/05/28 03:21:04;;;;;;;0.28;0.28;;;12.70;99.90;;;13.06;100.00;100408.97;4876607;29;20259;-75
2023/05/28 03:23:32;;;;;;;0.10;0.10;;;12.70;99.90;;;12.96;100.00;100390.38;4877089;29;20239;-75
2023/05/28 03:25:59;;;;;;;0.10;0.10;;;12.70;99.90;;;12.98;100.00;100396.56;4877006;29;20240;-74
2023/05/28 03:28:26;;;;;;;0.10;0.10;;;12.70;99.90;;;13.03;100.00;100410.75;4876978;29;20235;-75
2023/05/28 03:30:57;;;;;;;0.10;0.10;;;12.70;99.90;;;13.11;100.00;100431.09;4875754;29;20240;-74
2023/05/28 03:33:24;;;;;;;0.15;0.15;;;12.70;99.90;;;12.96;100.00;100425.78;4877173;29;20867;-74
2023/05/28 03:35:51;;;;;;;0.20;0.20;;;12.70;99.90;;;12.89;100.00;100431.97;4877868;29;20248;-74
2023/05/28 03:38:19;;;;;;;0.20;0.20;;;12.60;99.90;;;12.88;100.00;100446.13;4868404;29;20240;-74
2023/05/28 03:40:46;;;;;;;0.10;0.10;;;12.50;99.90;;;12.96;100.00;100462.94;4877416;29;20250;-74
2023/05/28 03:43:13;;;;;;;0.10;0.10;;;12.60;99.90;;;12.78;100.00;100466.47;4880677;29;20240;-74
2023/05/28 03:45:40;;;;;;;0.17;0.17;;;12.50;99.90;;;12.77;100.00;100459.41;4872342;29;20240;-74
2023/05/28 03:48:07;;;;;;;0.20;0.20;;;12.50;99.90;;;12.90;100.00;100486.81;4877117;29;20244;-74
2023/05/28 03:50:35;;;;;;;0.35;0.35;;;;;;;12.83;100.00;100471.78;4876510;29;20688;-74
2023/05/28 03:53:02;;;;;;;0.20;0.20;;;12.50;99.90;;;12.76;100.00;100460.28;4876249;29;20236;-73
2023/05/28 03:55:29;;;;;;;0.20;0.20;;;12.50;99.90;;;12.87;100.00;100480.63;4875518;29;20248;-75
2023/05/28 03:57:56;;;;;;;0.20;0.20;;;12.50;99.90;;;12.82;100.00;100475.31;4875446;29;20244;-75
2023/05/28 04:00:23;;;;;;;0.17;0.17;;;12.50;99.90;;;12.85;100.00;100477.97;4876120;29;20247;-75
2023/05/28 04:02:50;;;;;;;0.10;0.10;;;12.50;99.90;;;12.67;100.00;100462.94;4869842;29;20224;-73
2023/05/28 04:05:17;;;;;;;0.25;0.25;;;12.30;99.90;;;12.68;100.00;100467.34;4879337;29;20243;-73
2023/05/28 04:07:44;;;;;;;0.60;0.60;;;12.40;99.90;;;12.71;100.00;100472.66;4872546;29;20247;-74
2023/05/28 04:10:12;;;;;;;0.22;0.22;;;12.40;99.90;;;12.69;100.00;100479.72;4879320;29;20232;-74
2023/05/28 04:12:39;;;;;;;0.10;0.10;;;12.50;99.90;;;12.85;100.00;100506.28;4877247;29;20255;-74
2023/05/28 04:15:07;;;;;;;0.10;0.10;;;12.40;99.90;;;12.71;100.00;100499.19;4869486;29;20252;-74
2023/05/28 04:17:34;;;;;;;0.10;0.10;;;12.40;99.90;;;12.71;100.00;100512.47;4867152;29;20240;-74
2023/05/28 04:20:04;;;;;;;0.10;0.10;;;12.40;99.90;;;12.64;100.00;100515.09;4872809;29;20240;-74
2023/05/28 04:22:31;;;;;;;0.10;0.10;;;12.40;99.90;;;12.75;100.00;100531.94;4876152;29;20236;-74
2023/05/28 04:24:58;;;;;;;0.10;0.10;;;12.40;99.90;;;12.79;100.00;100542.56;4875939;29;20244;-74
2023/05/28 04:27:26;;;;;;;0.10;0.10;;;12.30;99.90;;;12.62;100.00;100520.41;4873455;29;20689;-75
2023/05/28 04:29:54;;;;;;;0.20;0.20;;;12.30;99.90;;;12.61;100.00;100525.72;4869809;29;20240;-76
2023/05/28 04:32:22;;;;;;;0.10;0.10;;;12.30;99.90;;;12.67;100.00;100545.19;4874316;29;20329;-77
2023/05/28 04:34:53;;;;;;;0.10;0.10;;;12.10;99.90;;;12.76;100.00;100561.13;4861829;29;20228;-76
2023/05/28 04:37:21;;;;;;;0.20;0.20;;;12.40;99.90;;;12.71;100.00;100562.00;4882298;29;20255;-77
2023/05/28 04:39:50;;;;;;;0.20;0.20;;;12.40;99.90;;;12.74;100.00;100560.22;4860894;29;20693;-77
2023/05/28 04:42:18;;;;;;;0.20;0.20;;;12.50;99.90;;;12.80;100.00;100562.91;4863644;29;20248;-77
2023/05/28 04:44:45;;;;;;;0.20;0.20;;;12.50;99.90;;;12.86;100.00;100571.75;4874779;29;20249;-77
2023/05/28 04:47:13;;;;;;;0.10;0.10;;;12.50;99.90;;;12.81;100.00;100571.75;4887349;29;20240;-76
2023/05/28 04:49:40;;;;;;;0.55;0.55;;;;;;;12.95;100.00;100583.28;4875028;29;20235;-77
2023/05/28 04:52:08;;;;;;;0.20;0.20;;;12.60;99.90;;;12.97;100.00;100594.78;4880279;29;20243;-78
2023/05/28 04:54:36;;;;;;;0.60;0.57;;;;;;;13.01;100.00;100608.97;4876430;29;20296;-78
2023/05/28 04:57:04;;;;;;;0.28;0.28;;;12.70;99.90;;;13.07;100.00;100620.50;4879860;29;20308;-78
2023/05/28 04:59:33;;;;;;;0.20;0.20;;;;;;;13.11;100.00;100630.25;4879877;29;20228;-78
2023/05/28 05:02:01;;;;;;;0.20;0.20;;;12.80;99.90;;;13.10;100.00;100632.91;4875263;29;20236;-78
2023/05/28 05:04:28;;;;;;;0.32;0.32;;;12.80;99.90;;;13.25;100.00;100634.72;4880606;29;20240;-79
2023/05/28 05:06:55;;;;;;;0.20;0.20;;;13.00;99.90;;;13.22;100.00;100627.63;4880773;29;20240;-78
2023/05/28 05:09:23;;;;;;;0.10;0.10;;;;;;;13.33;100.00;100633.84;4879620;29;20298;-78
2023/05/28 05:11:50;;;;;;;0.10;0.10;;;13.00;99.90;;;13.37;100.00;100645.34;4878537;29;20243;-78
2023/05/28 05:14:17;;;;;;;0.20;0.20;;;;;;;13.47;100.00;100648.91;4877519;29;20240;-78
2023/05/28 05:16:47;;;;;;;0.30;0.30;;;;;;;13.53;100.00;100660.44;4876557;29;20336;-78
2023/05/28 05:19:15;;;;;;;0.10;0.10;;;;;;;13.59;100.00;100657.78;4878660;29;20236;-78
2023/05/28 05:21:42;;;;;;;0.15;0.15;;;13.30;99.90;;;13.69;100.00;100654.22;4874794;29;20243;-77
2023/05/28 05:24:09;;;;;;;0.10;0.10;;;;;;;13.82;100.00;100655.09;4875843;29;20242;-77
2023/05/28 05:26:37;;;;;;;0.20;0.20;;;;;;;13.90;100.00;100663.97;4890841;29;20249;-77
2023/05/28 05:29:04;;;;;;;0.10;0.10;;;13.70;99.90;;;14.05;100.00;100655.97;4873840;29;20247;-78
2023/05/28 05:31:31;;;;;;;0.20;0.20;;;13.70;99.90;;;14.13;100.00;100653.28;4881497;29;20709;-77
2023/05/28 05:33:58;;;;;;;0.10;0.10;;;;;;;14.21;100.00;100651.50;4883189;29;20657;-78
2023/05/28 05:36:26;;;;;;;0.28;0.28;;;;;;;14.34;100.00;100634.66;4884421;29;20232;-78
2023/05/28 05:38:53;;;;;;;0.10;0.10;;;13.90;99.90;;;14.37;100.00;100624.00;4876971;29;20240;-78
2023/05/28 05:41:21;;;;;;;0.10;0.10;;;;;;;14.49;100.00;100606.25;4879846;29;20240;-78
2023/05/28 05:43:48;;;;;;;0.32;0.32;;;14.20;99.90;;;14.64;100.00;100616.81;4875233;29;20329;-76
2023/05/28 05:46:15;;;;;;;0.20;0.20;;;14.30;99.90;;;14.68;100.00;100576.88;4876370;29;20669;-77
2023/05/28 05:48:42;;;;;;;0.20;0.20;;;;;;;14.73;100.00;100561.75;4877490;29;20269;-77
2023/05/28 05:51:16;;;;;;;0.20;0.20;;;;;;;14.79;100.00;100552.84;4879210;29;20257;-77
2023/05/28 05:53:44;;;;;;;0.20;0.20;;;14.50;99.90;;;14.87;100.00;100531.50;4883550;29;20240;-75
2023/05/28 05:56:11;;;;;;;0.20;0.20;;;14.60;99.90;;;15.00;100.00;100534.06;4878790;29;20661;-77
2023/05/28 05:58:38;;;;;;;0.20;0.20;;;14.70;99.90;;;15.04;100.00;100525.16;4881298;29;20243;-77
2023/05/28 06:01:06;;;;;;;0.20;0.20;;;14.60;99.90;;;15.00;100.00;100491.44;4874465;29;20241;-77
2023/05/28 06:03:33;;;;;;;0.20;0.20;;;14.70;99.90;;;15.15;100.00;100485.09;4878505;29;20243;-77
2023/05/28 06:06:01;;;;;;;0.20;0.20;;;14.70;99.90;;;15.31;100.00;100494.72;4880523;29;20244;-77
2023/05/28 06:08:28;;;;;;;0.20;0.20;;;;;;;15.36;100.00;100492.03;4877887;29;20224;-77
2023/05/28 06:10:56;;;;;;;0.17;0.17;;;;;;;15.32;100.00;100488.50;4883625;29;20250;-77
2023/05/28 06:13:23;;;;;;;0.10;0.10;;;15.00;99.90;;;15.36;100.00;100458.25;4876215;29;20236;-78
2023/05/28 06:15:50;;;;;;;0.10;0.10;;;15.10;99.90;;;15.57;100.00;100441.19;4876580;29;20240;-77
2023/05/28 06:18:17;;;;;;;0.13;0.13;;;15.20;99.90;;;15.52;100.00;100427.00;4862270;29;20247;-77
2023/05/28 06:20:45;;;;;;;0.20;0.20;;;15.20;99.90;;;15.68;100.00;100428.66;4883589;29;20236;-77
2023/05/28 06:23:12;;;;;;;0.20;0.20;;;15.40;99.90;;;15.75;100.00;100423.25;4880139;29;20243;-78
2023/05/28 06:25:39;;;;;;;0.20;0.20;;;15.50;99.90;;;15.94;100.00;100435.44;4887238;29;20267;-77
2023/05/28 06:28:06;;;;;;;0.10;0.10;;;15.50;99.90;;;15.97;100.00;100440.75;4879292;29;20248;-77
2023/05/28 06:30:33;;;;;;;0.20;0.20;;;15.70;99.90;;;16.03;100.00;100424.66;4877805;29;20236;-77
2023/05/28 06:33:01;;;;;;;0.30;0.30;;;;;;;16.21;100.00;100419.06;4878945;29;20236;-77
2023/05/28 06:35:28;;;;;;;0.40;0.30;;;15.90;99.90;;;16.15;100.00;100392.47;4877207;29;20228;-77
2023/05/28 06:37:55;;;;;;;0.25;0.25;;;15.80;99.90;;;16.26;100.00;100393.19;4882179;29;20236;-77
2023/05/28 06:40:23;;;;;;;0.20;0.20;;;;;;;16.48;100.00;100393.75;4878937;29;20248;-78
2023/05/28 06:42:50;;;;;;;0.13;0.13;;;;;;;16.31;100.00;100361.09;4876629;29;20243;-77
2023/05/28 06:45:18;;;;;;;0.73;0.52;;;16.00;99.90;;;16.57;100.00;100366.03;4878774;29;20236;-77
2023/05/28 06:47:46;;;;;;;0.20;0.20;;;16.20;99.90;;;16.67;100.00;100369.47;4870249;29;20240;-77
2023/05/28 06:50:14;;;;;;;0.30;0.30;;;;;;;16.68;100.00;100318.69;4882792;29;20240;-77
2023/05/28 06:52:42;;;;;;;0.30;0.30;;;16.40;99.90;;;16.91;100.00;100339.69;4877896;29;20244;-77
2023/05/28 06:55:10;;;;;;;0.30;0.30;;;;;;;16.85;100.00;100310.38;4882516;29;20276;-77
2023/05/28 06:57:44;;;;;;;0.60;0.60;;;;;;;17.13;100.00;100310.75;4882110;29;20339;-77
2023/05/28 07:00:16;;;;;;;0.20;0.20;;;16.70;99.90;;;17.08;100.00;100301.97;4872921;29;20232;-78
2023/05/28 07:02:47;;;;;;;0.60;0.60;;;16.70;99.90;;;17.23;100.00;100321.25;4877360;29;20248;-79
2023/05/28 07:05:14;;;;;;;0.65;0.60;;;;;;;17.58;100.00;100327.66;4876709;29;20236;-77
2023/05/28 07:07:43;;;;;;;0.50;0.50;;;;;;;17.63;100.00;100330.22;4876804;29;20844;-77
2023/05/28 07:10:10;;;;;;;0.65;0.65;;;;;;;17.62;100.00;100320.44;4877454;29;20240;-77
2023/05/28 07:12:41;;;;;;;0.50;0.50;;;;;;;17.94;100.00;100346.50;4876675;29;20547;-77
2023/05/28 07:15:10;;;;;;;4.28;0.77;;;;;;;17.90;100.00;100276.16;4877734;29;20240;-77
2023/05/28 07:17:37;;;;;;;0.30;0.30;;;;;;;18.12;100.00;100236.38;4881077;29;20616;-77
2023/05/28 07:20:06;;;;;;;0.20;0.20;;;17.70;99.90;;;18.11;100.00;100238.16;4885447;29;20289;-77
2023/05/28 07:22:33;;;;;;;0.13;0.13;;;;;;;18.22;100.00;100254.88;4877968;29;20255;-77
2023/05/28 07:25:01;;;;;;;0.30;0.30;;;18.10;99.90;;;18.30;100.00;100235.94;4877902;29;20761;-77
2023/05/28 07:27:28;;;;;;;0.20;0.20;;;18.00;99.90;;;18.52;100.00;100196.97;4877904;29;20323;-77
2023/05/28 07:29:56;;;;;;;0.15;0.15;;;18.40;99.90;;;18.84;100.00;100204.13;4878049;29;20236;-77
2023/05/28 07:32:24;;;;;;;0.13;0.13;;;;;;;18.35;100.00;100097.47;4892539;29;20248;-76
2023/05/28 07:34:51;;;;;;;0.20;0.20;;;18.10;99.90;;;18.51;100.00;100164.88;4880185;29;20252;-77
2023/05/28 07:37:19;;;;;;;0.65;0.65;;;18.30;99.90;;;18.91;100.00;100136.97;4867163;29;20240;-78
2023/05/28 07:39:46;;;;;;;0.55;0.55;;;18.50;99.90;;;18.94;100.00;100076.13;4879697;29;20271;-77
2023/05/28 07:42:14;;;;;;;0.20;0.20;;;18.90;99.90;;;19.50;100.00;100136.03;4877938;29;20247;-76
2023/05/28 07:44:41;;;;;;;0.10;0.10;;;;;;;19.36;100.00;100116.78;4878821;29;20237;-76
2023/05/28 07:47:08;;;;;;;0.10;0.10;;;19.10;99.90;;;19.59;100.00;100102.69;4876811;29;20236;-76
2023/05/28 07:49:35;;;;;;;0.10;0.10;;;19.20;99.90;;;19.57;100.00;100016.03;4877139;29;20245;-78
2023/05/28 07:52:03;;;;;;;0.10;0.10;;;19.20;99.90;;;19.58;100.00;100033.00;4877352;29;20244;-77
2023/05/28 07:54:30;;;;;;;0.43;0.43;;;;;;;19.64;100.00;100024.75;4877344;29;20247;-78
2023/05/28 07:56:57;;;;;;;0.20;0.20;;;19.30;99.90;;;19.63;100.00;99985.44;4882346;29;20250;-79
2023/05/28 07:59:24;;;;;;;0.10;0.10;;;19.60;99.90;;;19.85;100.00;99958.72;4875696;29;20314;-78
2023/05/28 08:01:51;;;;;;;0.20;0.20;;;19.70;99.90;;;19.89;100.00;99957.69;4879959;29;20252;-78
2023/05/28 08:04:19;;;;;;;0.20;0.20;;;;;;;19.80;100.00;99927.56;4874531;29;20584;-77
2023/05/28 08:06:46;;;;;;;0.20;0.20;;;19.30;99.90;;;19.73;100.00;99888.47;4879760;29;20270;-77
2023/05/28 08:09:17;;;;;;;0.05;0.05;;;;;;;20.10;100.00;99967.63;4882849;29;20240;-78
2023/05/28 08:11:44;;;;;;;0.50;0.50;;;19.80;99.90;;;20.25;100.00;99950.06;4861275;29;20326;-78
2023/05/28 08:14:11;;;;;;;0.10;0.10;;;20.20;99.90;;;20.57;100.00;99940.78;4876861;29;20248;-78
2023/05/28 08:16:39;;;;;;;0.20;0.20;;;;;;;20.74;100.00;99927.53;4876428;29;20243;-78
2023/05/28 08:19:06;;;;;;;0.20;0.20;;;20.40;99.90;;;20.77;100.00;99857.53;4883082;29;20322;-78
2023/05/28 08:21:33;;;;;;;0.10;0.10;;;;;;;20.83;100.00;99811.63;4878468;29;20305;-78
2023/05/28 08:24:02;;;;;;;0.00;0.00;;;;;;;20.87;100.00;99799.81;4880504;29;20243;-77
2023/05/28 08:26:29;;;;;;;0.00;0.00;;;;;;;20.72;100.00;99730.56;4884768;29;20224;-79
2023/05/28 08:28:56;;;;;;;0.10;0.10;;;20.70;99.90;;;21.03;100.00;99822.41;4884379;29;20300;-79
2023/05/28 08:31:23;;;;;;;0.00;0.00;;;20.70;99.20;;;21.03;100.00;99759.69;4877129;29;20231;-79
2023/05/28 08:33:51;;;;;;;0.10;0.10;;;;;;;21.29;100.00;99745.09;4875695;29;20240;-79
2023/05/28 08:36:20;;;;;;;0.20;0.20;;;;;;;21.37;100.00;99617.41;4879044;29;20242;-79
2023/05/28 08:38:48;;;;;;;0.30;0.30;;;;;;;21.33;100.00;99625.69;4879193;29;20266;-79
2023/05/28 08:41:15;;;;;;;0.30;0.30;;;;;;;21.37;100.00;99638.91;4892843;29;20266;-79
2023/05/28 08:43:43;;;;;;;0.25;0.25;;;21.20;96.00;;;21.59;100.00;99536.50;4879766;29;20246;-79
2023/05/28 08:46:11;;;;;;;0.10;0.10;;;21.40;97.40;;;21.77;100.00;99582.28;4879476;29;20244;-79
2023/05/28 08:48:41;;;;;;;0.43;0.40;;;21.50;97.30;;;21.76;100.00;99569.78;4877650;29;20232;-77
2023/05/28 08:51:09;;;;;;;0.10;0.10;;;;;;;22.08;100.00;99593.25;4876580;29;20232;-77
2023/05/28 08:53:47;;;;;;;0.17;0.17;;;21.70;98.30;;;21.98;100.00;99582.06;4897482;29;20243;-77
2023/05/28 08:56:14;;;;;;;0.10;0.10;;;;;;;22.85;100.00;99639.53;4875394;29;20232;-77
2023/05/28 08:58:44;;;;;;;0.22;0.22;;;17.60;93.90;;;22.33;100.00;99436.66;4889039;29;20232;-78
2023/05/28 09:01:11;;;;;;;0.10;0.10;;;22.20;97.90;;;22.84;100.00;99565.00;4874589;29;20251;-78
2023/05/28 09:03:40;;;;;;;0.10;0.10;;;22.70;96.20;;;23.06;100.00;99493.69;4874824;29;20236;-78
2023/05/28 09:06:08;;;;;;;0.35;0.35;;;22.80;96.40;;;22.90;100.00;99442.47;4881653;29;20246;-78
2023/05/28 09:08:36;;;;;;;0.20;0.20;;;;;;;23.10;99.05;99438.63;4894776;23;20297;-80
2023/05/28 09:11:14;;;;;;;0.10;0.10;;;22.80;94.40;;;22.66;94.98;99281.19;4873852;29;20248;-80
2023/05/28 09:13:47;;;;;;;0.20;0.20;;;22.60;95.00;;;22.93;97.11;99339.84;4884990;29;20288;-81
2023/05/28 09:16:24;;;;;;;0.03;0.03;;;22.50;95.20;;;22.80;96.56;99293.88;4875217;29;20251;-80
2023/05/28 09:19:02;;;;;;;0.70;0.70;;;22.70;95.80;;;23.08;98.94;99327.28;4858198;29;20326;-80
2023/05/28 09:21:30;;;;;;;0.20;0.20;;;23.00;95.30;;;23.29;97.36;99344.88;4873102;29;20347;-79
2023/05/28 09:23:58;;;;;;;0.80;0.80;;;;;;;23.80;93.09;99350.78;4857245;29;20304;-78
2023/05/28 09:26:33;;;;;;;0.52;0.52;;;23.40;96.20;;;23.33;96.77;99286.19;4857471;29;20236;-78
2023/05/28 09:29:02;;;;;;;0.95;0.30;;;;;;;23.51;93.87;99264.38;4839353;29;20281;-78
2023/05/28 09:31:33;;;;;;;0.00;0.00;;;;;;;23.53;86.90;99167.13;4858017;29;20233;-78
2023/05/28 09:34:04;;;;;;;0.10;0.10;;;23.40;94.80;;;23.42;93.24;99186.72;4859213;29;20251;-78
2023/05/28 09:36:31;;;;;;;0.00;0.00;;;23.60;93.60;;;24.13;87.40;99212.75;4862690;29;20239;-78
2023/05/28 09:38:58;;;;;;;0.10;0.10;;;23.90;94.60;;;24.06;91.28;99233.00;4860141;29;20260;-79
2023/05/28 09:41:34;;;;;;;0.13;0.13;;;23.90;93.50;;;24.19;86.93;99148.38;4861879;29;20243;-79
2023/05/28 09:44:05;;;;;;;0.10;0.10;;;24.20;95.10;;;24.73;92.29;99274.53;4863905;29;20278;-78
2023/05/28 09:46:34;;;;;;;0.28;0.28;;;24.60;95.40;;;24.87;91.70;99231.19;4860271;29;20328;-78
2023/05/28 09:49:04;;;;;;;0.00;0.00;;;24.60;93.90;;;24.57;86.24;99124.16;4859041;29;20300;-79
2023/05/28 09:51:33;;;;;;;0.13;0.13;;;24.30;92.90;;;24.27;84.27;99012.81;4861092;29;20236;-78
2023/05/28 09:54:03;;;;;;;0.13;0.13;;;24.90;92.50;;;25.23;82.16;99132.25;4847043;29;20255;-78
2023/05/28 09:56:32;;;;;;;0.20;0.20;;;24.70;92.40;;;24.84;81.28;99005.16;4860387;29;20234;-78
2023/05/28 09:59:07;;;;;;;0.05;0.05;;;24.60;92.80;;;24.96;83.38;99029.56;4860242;29;20259;-78
2023/05/28 10:01:49;;;;;;;1.65;1.30;;;24.40;92.20;;;24.46;83.60;98958.34;4859730;29;20316;-78
2023/05/28 10:04:23;;;;;;;0.10;0.10;;;24.60;93.00;;;25.02;82.76;99031.84;4860968;29;20235;-79
2023/05/28 10:06:52;;;;;;;0.30;0.20;;;24.60;92.60;;;24.84;83.55;98970.00;4857630;29;20236;-80
2023/05/28 10:09:20;;;;;;;0.00;0.00;;;24.90;91.30;;;24.80;78.16;98870.28;4871965;29;20239;-80
2023/05/28 10:12:17;;;;;;;1.52;0.63;;;25.50;92.80;;;25.83;78.60;99010.47;4869506;29;20251;-80
2023/05/28 10:14:46;;;;;;;0.43;0.30;;;25.50;92.20;;;25.58;81.32;98986.22;4861144;29;20237;-79
2023/05/28 10:17:14;;;;;;;0.30;0.30;;;25.00;92.30;;;25.16;82.20;98916.25;4862403;29;20243;-79
2023/05/28 10:19:41;;;;;;;0.45;0.40;;;;;;;25.18;80.74;98894.50;4874117;29;20231;-78
2023/05/28 10:22:09;;;;;;;0.60;0.60;;;;;;;25.33;80.24;98901.47;4857105;29;20236;-78
2023/05/28 10:24:36;;;;;;;0.30;0.30;;;24.90;91.30;;;25.12;77.49;98811.13;4874188;29;20255;-78
2023/05/28 10:27:07;;;;;;;0.60;0.60;;;26.10;93.30;;;25.69;81.69;98924.88;4857497;29;20237;-77